Time;durP1;ratioP1;P1;durP2;ratioP2;P2;SDS_P1;SDS_P2;PMS_P1;PMS_P2;Temp;Humidity;BMP_temperature;BMP_pressure;BME280_temperature;BME280_humidity;BME280_pressure;Samples;Min_cycle;Max_cycle;Signal;HPM_P1;HPM_P2
2023/09/07 00:01:36;;;;;;;6.50;4.40;;;;;;;;;;107689;297;43095;-40
2023/09/07 00:04:12;;;;;;;5.70;4.40;;;;;;;;;;107697;298;42055;-40
2023/09/07 00:06:46;;;;;;;5.50;4.40;;;;;;;;;;107713;297;38478;-40
2023/09/07 00:09:21;;;;;;;6.90;4.80;;;;;;;;;;107718;297;39332;-40
2023/09/07 00:11:55;;;;;;;6.20;4.50;;;;;;;;;;107703;297;42838;-40
2023/09/07 00:14:30;;;;;;;5.70;4.70;;;;;;;;;;107703;297;41770;-40
2023/09/07 00:17:05;;;;;;;5.70;4.50;;;;;;;;;;107729;298;38497;-40
2023/09/07 00:19:38;;;;;;;6.30;4.80;;;;;;;;;;107738;297;39403;-40
2023/09/07 00:22:17;;;;;;;6.40;5.30;;;;;;;;;;107711;297;42765;-40
2023/09/07 00:24:53;;;;;;;6.30;5.10;;;;;;;;;;107714;297;43196;-41
2023/09/07 00:27:28;;;;;;;6.40;5.40;;;;;;;;;;107708;297;38722;-40
2023/09/07 00:30:03;;;;;;;7.00;5.90;;;;;;;;;;107728;297;39568;-40
2023/09/07 00:32:40;;;;;;;7.10;5.80;;;;;;;;;;107695;297;43911;-40
2023/09/07 00:35:14;;;;;;;7.60;6.00;;;;;;;;;;107761;297;41940;-40
2023/09/07 00:37:50;;;;;;;7.60;5.90;;;;;;;;;;107719;297;38465;-40
2023/09/07 00:40:26;;;;;;;7.00;6.20;;;;;;;;;;107712;297;39339;-40
2023/09/07 00:43:04;;;;;;;8.20;6.40;;;;;;;;;;107673;298;43853;-40
2023/09/07 00:45:47;;;;;;;6.70;5.70;;;;;;;;;;107731;297;41777;-40
2023/09/07 00:48:21;;;;;;;7.10;6.10;;;;;;;;;;107708;297;38807;-40
2023/09/07 00:51:02;;;;;;;7.30;6.10;;;;;;;;;;107733;297;39601;-40
2023/09/07 00:53:37;;;;;;;7.80;6.30;;;;;;;;;;107691;297;43941;-40
2023/09/07 00:56:11;;;;;;;7.20;6.30;;;;;;;;;;107742;297;41993;-40
2023/09/07 00:58:47;;;;;;;6.70;6.00;;;;;;;;;;107706;297;38598;-40
2023/09/07 01:01:26;;;;;;;6.60;6.00;;;;;;;;;;107696;297;39913;-40
2023/09/07 01:04:01;;;;;;;6.80;6.10;;;;;;;;;;107681;297;42869;-40
2023/09/07 01:06:43;;;;;;;6.90;5.90;;;;;;;;;;107724;297;42134;-40
2023/09/07 01:09:22;;;;;;;7.00;6.00;;;;;;;;;;107729;297;39066;-41
2023/09/07 01:11:58;;;;;;;6.60;5.90;;;;;;;;;;107768;297;39428;-40
2023/09/07 01:14:31;;;;;;;7.20;6.30;;;;;;;;;;107678;297;48565;-40
2023/09/07 01:17:13;;;;;;;6.80;5.90;;;;;;;;;;107680;297;42337;-40
2023/09/07 01:19:51;;;;;;;7.30;6.10;;;;;;;;;;107684;297;40014;-40
2023/09/07 01:22:27;;;;;;;6.60;5.70;;;;;;;;;;107729;297;39464;-40
2023/09/07 01:25:05;;;;;;;6.80;6.00;;;;;;;;;;107726;297;50508;-40
2023/09/07 01:27:40;;;;;;;7.40;6.20;;;;;;;;;;107714;297;43489;-40
2023/09/07 01:30:15;;;;;;;7.40;5.40;;;;;;;;;;107699;297;38906;-40
2023/09/07 01:32:50;;;;;;;7.30;5.90;;;;;;;;;;107593;297;175536;-40
2023/09/07 01:35:26;;;;;;;6.70;5.70;;;;;;;;;;107743;297;44207;-40
2023/09/07 01:37:59;;;;;;;6.60;5.90;;;;;;;;;;107691;297;41880;-40
2023/09/07 01:40:35;;;;;;;7.10;5.80;;;;;;;;;;107710;297;38699;-40
2023/09/07 01:43:10;;;;;;;6.60;5.90;;;;;;;;;;107684;297;39669;-40
2023/09/07 01:45:45;;;;;;;6.60;5.60;;;;;;;;;;107705;297;42948;-40
2023/09/07 01:48:19;;;;;;;6.00;5.20;;;;;;;;;;107724;297;42084;-40
2023/09/07 01:51:00;;;;;;;7.50;6.00;;;;;;;;;;107068;297;892291;-40
2023/09/07 01:53:41;;;;;;;6.70;5.30;;;;;;;;;;107669;297;40801;-40
2023/09/07 01:56:15;;;;;;;6.70;5.70;;;;;;;;;;107730;297;44335;-40
2023/09/07 01:58:48;;;;;;;7.00;5.80;;;;;;;;;;107738;298;42119;-40
2023/09/07 02:01:34;;;;;;;7.00;5.70;;;;;;;;;;107745;297;39621;-40
2023/09/07 02:04:08;;;;;;;6.80;5.40;;;;;;;;;;107617;297;175556;-40
2023/09/07 02:06:43;;;;;;;6.00;5.30;;;;;;;;;;107753;297;42847;-41
2023/09/07 02:09:16;;;;;;;6.90;5.50;;;;;;;;;;107697;297;42118;-40
2023/09/07 02:11:50;;;;;;;6.90;5.60;;;;;;;;;;107730;297;38747;-41
2023/09/07 02:14:25;;;;;;;6.80;5.20;;;;;;;;;;107688;298;39666;-40
2023/09/07 02:17:06;;;;;;;5.90;5.20;;;;;;;;;;107739;297;43106;-40
2023/09/07 02:19:41;;;;;;;6.60;5.30;;;;;;;;;;107617;298;175549;-40
2023/09/07 02:22:17;;;;;;;6.50;5.70;;;;;;;;;;107703;297;38761;-40
2023/09/07 02:24:52;;;;;;;7.20;5.70;;;;;;;;;;107658;297;39963;-40
2023/09/07 02:27:26;;;;;;;6.80;5.60;;;;;;;;;;107750;297;43031;-40
2023/09/07 02:30:03;;;;;;;6.50;5.50;;;;;;;;;;107729;298;42188;-40
2023/09/07 02:32:41;;;;;;;6.80;5.50;;;;;;;;;;107690;297;38985;-40
2023/09/07 02:35:17;;;;;;;7.20;5.70;;;;;;;;;;107695;297;39791;-40
2023/09/07 02:37:54;;;;;;;7.40;5.50;;;;;;;;;;107766;298;42975;-40
2023/09/07 02:40:29;;;;;;;7.90;5.30;;;;;;;;;;107698;297;42121;-40
2023/09/07 02:43:05;;;;;;;7.10;5.80;;;;;;;;;;107669;298;39943;-41
2023/09/07 02:45:41;;;;;;;7.40;5.50;;;;;;;;;;107692;297;39569;-40
2023/09/07 02:48:16;;;;;;;7.30;5.60;;;;;;;;;;107716;297;42830;-41
2023/09/07 02:50:50;;;;;;;6.60;5.50;;;;;;;;;;107712;298;43158;-41
2023/09/07 02:53:29;;;;;;;8.60;5.80;;;;;;;;;;107711;298;38796;-40
2023/09/07 02:56:04;;;;;;;6.80;5.80;;;;;;;;;;107690;297;39650;-41
2023/09/07 02:58:40;;;;;;;7.20;5.40;;;;;;;;;;107711;297;43343;-41
2023/09/07 03:01:19;;;;;;;7.20;5.50;;;;;;;;;;107744;298;42188;-41
2023/09/07 03:03:52;;;;;;;7.10;5.60;;;;;;;;;;107719;298;38757;-40
2023/09/07 03:06:27;;;;;;;8.30;5.90;;;;;;;;;;107688;297;39620;-40
2023/09/07 03:09:01;;;;;;;7.40;5.60;;;;;;;;;;107699;297;43901;-40
2023/09/07 03:11:34;;;;;;;8.10;5.80;;;;;;;;;;107726;297;42416;-40
2023/09/07 03:14:09;;;;;;;8.20;5.60;;;;;;;;;;107731;297;38669;-40
2023/09/07 03:16:44;;;;;;;7.10;5.60;;;;;;;;;;107669;297;39567;-40
2023/09/07 03:19:19;;;;;;;6.40;5.40;;;;;;;;;;107767;297;42860;-40
2023/09/07 03:21:55;;;;;;;6.50;5.30;;;;;;;;;;107791;297;42170;-40
2023/09/07 03:24:29;;;;;;;6.90;5.50;;;;;;;;;;107766;297;40000;-41
2023/09/07 03:27:03;;;;;;;6.70;5.50;;;;;;;;;;107623;297;175549;-40
2023/09/07 03:29:39;;;;;;;7.10;5.20;;;;;;;;;;107786;297;43016;-41
2023/09/07 03:32:14;;;;;;;6.30;5.10;;;;;;;;;;107755;298;42222;-41
2023/09/07 03:34:49;;;;;;;6.70;5.40;;;;;;;;;;107748;297;38716;-40
2023/09/07 03:37:23;;;;;;;6.50;5.00;;;;;;;;;;107687;297;39813;-40
2023/09/07 03:39:58;;;;;;;7.20;5.30;;;;;;;;;;107758;297;42868;-41
2023/09/07 03:42:31;;;;;;;7.40;5.20;;;;;;;;;;107761;298;41999;-41
2023/09/07 03:45:15;;;;;;;7.70;5.30;;;;;;;;;;107813;297;40040;-40
2023/09/07 03:47:49;;;;;;;6.60;5.40;;;;;;;;;;107771;298;46523;-40
2023/09/07 03:50:27;;;;;;;6.70;5.20;;;;;;;;;;107754;297;42773;-40
2023/09/07 03:53:00;;;;;;;6.50;4.80;;;;;;;;;;107704;297;42148;-40
2023/09/07 03:55:44;;;;;;;7.30;5.00;;;;;;;;;;107708;298;38786;-41
2023/09/07 03:58:17;;;;;;;6.90;5.30;;;;;;;;;;107792;297;46530;-41
2023/09/07 04:00:51;;;;;;;7.50;5.30;;;;;;;;;;107726;303;42615;-40
2023/09/07 04:03:26;;;;;;;7.60;5.30;;;;;;;;;;107713;297;42093;-40
2023/09/07 04:05:59;;;;;;;6.70;5.00;;;;;;;;;;107685;297;38478;-40
2023/09/07 04:08:35;;;;;;;7.30;5.10;;;;;;;;;;107827;297;45415;-40
2023/09/07 04:11:09;;;;;;;6.20;5.00;;;;;;;;;;107713;297;42784;-40
2023/09/07 04:13:42;;;;;;;7.30;5.10;;;;;;;;;;107725;297;42130;-40
2023/09/07 04:16:21;;;;;;;9.90;6.50;;;;;;;;;;107733;297;40042;-40
2023/09/07 04:18:57;;;;;;;6.50;5.20;;;;;;;;;;107667;297;46861;-40
2023/09/07 04:21:31;;;;;;;7.20;4.80;;;;;;;;;;107725;297;43179;-40
2023/09/07 04:24:05;;;;;;;7.10;5.10;;;;;;;;;;107697;297;42132;-40
2023/09/07 04:26:42;;;;;;;6.50;5.00;;;;;;;;;;107739;297;38728;-41
2023/09/07 04:29:17;;;;;;;6.60;5.20;;;;;;;;;;107690;297;45524;-40
2023/09/07 04:31:58;;;;;;;6.90;5.20;;;;;;;;;;107741;297;44162;-40
2023/09/07 04:34:32;;;;;;;6.30;4.80;;;;;;;;;;107744;297;42065;-41
2023/09/07 04:37:10;;;;;;;6.30;4.70;;;;;;;;;;107687;297;38802;-40
2023/09/07 04:39:48;;;;;;;6.10;4.90;;;;;;;;;;107743;298;45726;-40
2023/09/07 04:42:25;;;;;;;6.20;4.90;;;;;;;;;;107734;297;42534;-40
2023/09/07 04:44:59;;;;;;;6.80;5.10;;;;;;;;;;107709;297;41801;-40
2023/09/07 04:47:36;;;;;;;6.20;4.80;;;;;;;;;;107710;297;39082;-40
2023/09/07 04:50:20;;;;;;;6.60;4.70;;;;;;;;;;107707;297;46799;-41
2023/09/07 04:52:54;;;;;;;6.60;4.60;;;;;;;;;;107720;297;42672;-40
2023/09/07 04:55:27;;;;;;;6.20;4.70;;;;;;;;;;107737;297;43160;-40
2023/09/07 04:58:03;;;;;;;6.10;4.60;;;;;;;;;;107674;297;38742;-40
2023/09/07 05:00:37;;;;;;;7.20;4.70;;;;;;;;;;107690;297;39363;-40
2023/09/07 05:03:10;;;;;;;6.00;4.60;;;;;;;;;;107762;298;42681;-40
2023/09/07 05:06:02;;;;;;;6.30;5.10;;;;;;;;;;107715;297;41999;-40
2023/09/07 05:08:42;;;;;;;6.20;5.00;;;;;;;;;;107461;297;354015;-40
2023/09/07 05:11:18;;;;;;;6.30;4.80;;;;;;;;;;107699;297;39426;-40
2023/09/07 05:13:56;;;;;;;6.00;4.50;;;;;;;;;;107723;297;42787;-40
2023/09/07 05:16:32;;;;;;;6.40;5.10;;;;;;;;;;107736;297;42167;-40
2023/09/07 05:19:07;;;;;;;6.80;5.10;;;;;;;;;;107560;297;175536;-40
2023/09/07 05:21:45;;;;;;;6.40;5.00;;;;;;;;;;107737;297;39345;-39
2023/09/07 05:24:19;;;;;;;5.60;4.50;;;;;;;;;;107624;297;175087;-40
2023/09/07 05:26:53;;;;;;;6.50;4.70;;;;;;;;;;107722;297;42117;-41
2023/09/07 05:29:31;;;;;;;6.50;4.80;;;;;;;;;;107590;297;175561;-40
2023/09/07 05:32:09;;;;;;;6.60;5.00;;;;;;;;;;107712;297;39301;-41
2023/09/07 05:34:45;;;;;;;8.30;5.20;;;;;;;;;;107737;297;42937;-40
2023/09/07 05:37:18;;;;;;;8.50;5.40;;;;;;;;;;107732;297;42006;-40
2023/09/07 05:40:08;;;;;;;6.90;4.80;;;;;;;;;;107698;297;38854;-41
2023/09/07 05:42:45;;;;;;;7.10;4.90;;;;;;;;;;107591;297;175559;-41
2023/09/07 05:45:25;;;;;;;7.60;5.20;;;;;;;;;;107714;297;43133;-41
2023/09/07 05:48:18;;;;;;;8.10;5.30;;;;;;;;;;107664;297;42304;-41
2023/09/07 05:50:55;;;;;;;7.40;4.90;;;;;;;;;;107694;297;38692;-41
2023/09/07 05:53:32;;;;;;;8.70;5.50;;;;;;;;;;107732;297;40873;-41
2023/09/07 05:56:08;;;;;;;8.70;5.60;;;;;;;;;;107717;297;44174;-41
2023/09/07 05:58:43;;;;;;;8.50;5.40;;;;;;;;;;107735;297;42117;-41
2023/09/07 06:01:25;;;;;;;7.90;5.70;;;;;;;;;;107681;297;38746;-41
2023/09/07 06:04:01;;;;;;;10.20;5.70;;;;;;;;;;107742;297;39737;-41
2023/09/07 06:06:35;;;;;;;7.70;5.50;;;;;;;;;;107709;297;43397;-41
2023/09/07 06:09:09;;;;;;;8.00;5.70;;;;;;;;;;107711;297;42457;-41
2023/09/07 06:11:42;;;;;;;7.90;6.00;;;;;;;;;;107817;297;45312;-41
2023/09/07 06:14:16;;;;;;;8.60;6.30;;;;;;;;;;107722;298;39430;-42
2023/09/07 06:16:56;;;;;;;8.50;6.40;;;;;;;;;;107729;297;42584;-41
2023/09/07 06:19:34;;;;;;;7.70;6.30;;;;;;;;;;107718;298;42070;-41
2023/09/07 06:22:13;;;;;;;9.50;6.60;;;;;;;;;;107725;297;47195;-41
2023/09/07 06:24:49;;;;;;;8.70;6.20;;;;;;;;;;107730;297;39589;-41
2023/09/07 06:27:24;;;;;;;8.80;6.60;;;;;;;;;;107713;297;43869;-41
2023/09/07 06:30:02;;;;;;;9.20;6.20;;;;;;;;;;107686;297;42030;-41
2023/09/07 06:32:43;;;;;;;8.70;6.30;;;;;;;;;;107729;297;44829;-41
2023/09/07 06:35:19;;;;;;;8.70;6.50;;;;;;;;;;107741;297;39422;-41
2023/09/07 06:37:59;;;;;;;10.50;6.70;;;;;;;;;;107744;297;44318;-41
2023/09/07 06:40:35;;;;;;;10.60;7.10;;;;;;;;;;107686;297;41885;-41
2023/09/07 06:43:11;;;;;;;9.90;7.30;;;;;;;;;;107735;297;38595;-41
2023/09/07 06:45:48;;;;;;;8.90;7.00;;;;;;;;;;107790;297;39394;-40
2023/09/07 06:48:22;;;;;;;9.80;7.10;;;;;;;;;;107753;297;42931;-41
2023/09/07 06:50:58;;;;;;;10.10;7.70;;;;;;;;;;107680;297;42096;-40
2023/09/07 06:53:37;;;;;;;10.50;7.50;;;;;;;;;;107698;297;38829;-41
2023/09/07 06:56:39;;;;;;;10.10;8.20;;;;;;;;;;107727;297;39736;-41
2023/09/07 06:59:20;;;;;;;11.70;8.30;;;;;;;;;;107726;298;43248;-42
2023/09/07 07:01:53;;;;;;;10.50;9.00;;;;;;;;;;107658;298;42102;-41
2023/09/07 07:04:35;;;;;;;11.50;9.60;;;;;;;;;;107707;298;39889;-40
2023/09/07 07:07:11;;;;;;;12.20;9.40;;;;;;;;;;107715;297;39563;-40
2023/09/07 07:09:47;;;;;;;13.00;9.70;;;;;;;;;;107688;297;42540;-41
2023/09/07 07:12:23;;;;;;;13.60;10.30;;;;;;;;;;107693;298;42116;-41
2023/09/07 07:15:00;;;;;;;13.90;10.30;;;;;;;;;;107728;298;38702;-41
2023/09/07 07:17:37;;;;;;;13.90;10.70;;;;;;;;;;107769;297;39719;-40
2023/09/07 07:20:17;;;;;;;13.40;10.90;;;;;;;;;;107737;297;43141;-41
2023/09/07 07:22:50;;;;;;;15.60;11.20;;;;;;;;;;107689;297;42604;-41
2023/09/07 07:25:28;;;;;;;15.20;11.20;;;;;;;;;;107703;297;38683;-41
2023/09/07 07:28:10;;;;;;;16.10;11.60;;;;;;;;;;107732;297;40614;-41
2023/09/07 07:30:48;;;;;;;15.20;11.10;;;;;;;;;;107693;297;42902;-41
2023/09/07 07:33:23;;;;;;;16.60;11.20;;;;;;;;;;107664;297;41923;-40
2023/09/07 07:35:57;;;;;;;15.60;11.10;;;;;;;;;;107071;297;892943;-41
2023/09/07 07:38:32;;;;;;;14.50;10.90;;;;;;;;;;107729;298;39848;-41
2023/09/07 07:41:06;;;;;;;15.30;11.80;;;;;;;;;;107729;298;42520;-41
2023/09/07 07:43:42;;;;;;;14.60;11.30;;;;;;;;;;107691;297;43701;-41
2023/09/07 07:46:16;;;;;;;17.00;11.60;;;;;;;;;;107728;297;38797;-41
2023/09/07 07:48:50;;;;;;;13.70;11.20;;;;;;;;;;107710;297;39665;-41
2023/09/07 07:51:26;;;;;;;16.30;11.50;;;;;;;;;;107735;297;42841;-41
2023/09/07 07:54:00;;;;;;;15.60;11.70;;;;;;;;;;107695;297;42272;-41
2023/09/07 07:56:39;;;;;;;15.40;10.80;;;;;;;;;;107616;297;175525;-41
2023/09/07 07:59:17;;;;;;;14.20;11.20;;;;;;;;;;107679;297;39351;-41
2023/09/07 08:01:50;;;;;;;15.50;10.60;;;;;;;;;;107719;297;43936;-41
2023/09/07 08:04:27;;;;;;;14.90;10.90;;;;;;;;;;107768;297;42120;-41
2023/09/07 08:07:05;;;;;;;14.80;11.10;;;;;;;;;;107624;297;175578;-41
2023/09/07 08:09:45;;;;;;;13.80;10.30;;;;;;;;;;107714;297;39608;-41
2023/09/07 08:12:21;;;;;;;13.30;10.20;;;;;;;;;;107719;297;42963;-41
2023/09/07 08:14:56;;;;;;;14.80;10.40;;;;;;;;;;107719;297;42071;-41
2023/09/07 08:17:29;;;;;;;15.60;10.60;;;;;;;;;;107769;297;40965;-41
2023/09/07 08:20:11;;;;;;;12.50;10.00;;;;;;;;;;107741;297;39791;-41
2023/09/07 08:22:45;;;;;;;14.20;10.50;;;;;;;;;;107668;298;44059;-41
2023/09/07 08:25:21;;;;;;;11.90;10.10;;;;;;;;;;107628;297;175018;-41
2023/09/07 08:28:05;;;;;;;12.50;10.00;;;;;;;;;;107728;297;39843;-41
2023/09/07 08:30:40;;;;;;;11.70;9.40;;;;;;;;;;107712;297;39694;-41
2023/09/07 08:33:13;;;;;;;12.00;9.20;;;;;;;;;;107702;298;42835;-41
2023/09/07 08:35:55;;;;;;;11.70;9.70;;;;;;;;;;107734;298;42038;-41
2023/09/07 08:38:34;;;;;;;11.30;9.10;;;;;;;;;;107713;297;38921;-41
2023/09/07 08:41:11;;;;;;;12.80;9.60;;;;;;;;;;107735;303;40153;-41
2023/09/07 08:43:49;;;;;;;11.30;9.50;;;;;;;;;;107696;297;42792;-40
2023/09/07 08:46:28;;;;;;;10.10;8.90;;;;;;;;;;107719;297;43351;-41
2023/09/07 08:49:05;;;;;;;10.10;8.60;;;;;;;;;;107716;297;40040;-41
2023/09/07 08:51:40;;;;;;;10.50;8.60;;;;;;;;;;107703;297;39679;-41
2023/09/07 08:54:18;;;;;;;12.00;8.70;;;;;;;;;;107603;293;43979;-38
2023/09/07 08:56:56;;;;;;;11.00;8.40;;;;;;;;;;107734;297;42114;-38
2023/09/07 08:59:36;;;;;;;10.10;8.20;;;;;;;;;;107724;297;39812;-40
2023/09/07 09:02:16;;;;;;;11.20;8.60;;;;;;;;;;107586;289;39753;-38
2023/09/07 09:04:52;;;;;;;10.50;8.20;;;;;;;;;;107535;290;175540;-42
2023/09/07 09:07:29;;;;;;;10.20;7.90;;;;;;;;;;107686;290;42060;-41
2023/09/07 09:10:17;;;;;;;10.20;7.90;;;;;;;;;;107666;297;39955;-40
2023/09/07 09:12:56;;;;;;;10.10;8.30;;;;;;;;;;107733;294;39507;-38
2023/09/07 09:15:34;;;;;;;9.20;7.50;;;;;;;;;;107650;290;42639;-38
2023/09/07 09:18:19;;;;;;;9.60;8.00;;;;;;;;;;107746;297;42310;-38
2023/09/07 09:20:58;;;;;;;8.80;7.50;;;;;;;;;;107699;298;40081;-37
2023/09/07 09:23:40;;;;;;;9.40;7.40;;;;;;;;;;107718;294;39599;-37
2023/09/07 09:26:15;;;;;;;9.80;7.70;;;;;;;;;;107728;297;50200;-38
2023/09/07 09:28:50;;;;;;;9.60;7.20;;;;;;;;;;107585;293;175508;-37
2023/09/07 09:31:26;;;;;;;8.80;7.30;;;;;;;;;;107706;290;38729;-37
2023/09/07 09:34:00;;;;;;;10.20;7.50;;;;;;;;;;107684;289;40932;-38
2023/09/07 09:36:43;;;;;;;8.80;6.80;;;;;;;;;;107688;293;49141;-38
2023/09/07 09:39:28;;;;;;;8.50;7.10;;;;;;;;;;107688;297;43419;-40
2023/09/07 09:42:02;;;;;;;9.90;7.10;;;;;;;;;;107681;297;38719;-37
2023/09/07 09:44:39;;;;;;;9.40;6.90;;;;;;;;;;107647;297;39568;-37
2023/09/07 09:47:15;;;;;;;9.00;7.00;;;;;;;;;;107750;289;42948;-40
2023/09/07 09:49:55;;;;;;;9.50;6.50;;;;;;;;;;107723;290;42095;-38
2023/09/07 09:52:32;;;;;;;9.10;6.40;;;;;;;;;;107696;297;38580;-37
2023/09/07 09:55:12;;;;;;;10.50;6.60;;;;;;;;;;107652;289;39786;-38
2023/09/07 09:57:57;;;;;;;7.80;6.40;;;;;;;;;;107711;293;42520;-39
2023/09/07 10:00:37;;;;;;;9.00;6.20;;;;;;;;;;107727;297;42170;-38
2023/09/07 10:03:15;;;;;;;9.40;6.20;;;;;;;;;;107701;293;38676;-39
2023/09/07 10:05:49;;;;;;;8.40;6.30;;;;;;;;;;107698;297;40800;-39
2023/09/07 10:08:24;;;;;;;7.90;5.90;;;;;;;;;;107704;290;44802;-40
2023/09/07 10:11:08;;;;;;;8.80;5.90;;;;;;;;;;107695;297;42071;-39
2023/09/07 10:13:43;;;;;;;8.40;5.90;;;;;;;;;;107702;293;38751;-40
2023/09/07 10:16:20;;;;;;;7.90;5.60;;;;;;;;;;107654;297;39718;-40
2023/09/07 10:18:58;;;;;;;6.80;5.50;;;;;;;;;;107736;293;42841;-36
2023/09/07 10:21:43;;;;;;;7.70;5.20;;;;;;;;;;107663;293;42076;-37
2023/09/07 10:24:28;;;;;;;7.70;5.20;;;;;;;;;;107710;290;38732;-38
2023/09/07 10:27:04;;;;;;;8.00;5.60;;;;;;;;;;107650;294;39802;-37
2023/09/07 10:29:52;;;;;;;7.60;5.30;;;;;;;;;;107708;290;42625;-38
2023/09/07 10:32:41;;;;;;;7.00;5.30;;;;;;;;;;107702;290;43334;-38
2023/09/07 10:35:24;;;;;;;6.40;4.80;;;;;;;;;;107703;290;40019;-39
2023/09/07 10:37:55;;;;;;;;;;;;;;;;;;107738;294;45492;-38
2023/09/07 10:40:35;;;;;;;6.40;4.80;;;;;;;;;;107694;290;43030;-39
2023/09/07 10:43:09;;;;;;;8.50;5.10;;;;;;;;;;107680;290;42262;-39
2023/09/07 10:45:46;;;;;;;8.40;5.10;;;;;;;;;;107681;297;38688;-40
2023/09/07 10:48:23;;;;;;;6.50;5.10;;;;;;;;;;107688;290;46849;-39
2023/09/07 10:51:00;;;;;;;7.60;5.10;;;;;;;;;;107697;290;42877;-38
2023/09/07 10:53:36;;;;;;;6.40;4.60;;;;;;;;;;107655;298;42051;-37
2023/09/07 10:56:10;;;;;;;7.50;4.90;;;;;;;;;;107665;293;39989;-38
2023/09/07 10:58:50;;;;;;;7.00;4.80;;;;;;;;;;107706;293;45883;-39
2023/09/07 11:01:29;;;;;;;7.10;4.70;;;;;;;;;;107662;291;43023;-38
2023/09/07 11:04:14;;;;;;;7.70;4.90;;;;;;;;;;107707;290;43194;-37
2023/09/07 11:06:51;;;;;;;6.80;4.90;;;;;;;;;;107687;294;38841;-38
2023/09/07 11:09:25;;;;;;;6.90;4.70;;;;;;;;;;107591;290;175120;-38
2023/09/07 11:12:06;;;;;;;6.90;4.80;;;;;;;;;;107700;290;43382;-38
2023/09/07 11:14:49;;;;;;;6.40;4.90;;;;;;;;;;107739;293;42055;-38
2023/09/07 11:17:28;;;;;;;6.80;5.00;;;;;;;;;;107504;294;175444;-38
2023/09/07 11:20:10;;;;;;;6.80;4.60;;;;;;;;;;107732;297;39637;-38
2023/09/07 11:22:45;;;;;;;6.90;4.90;;;;;;;;;;107748;289;43974;-38
2023/09/07 11:25:42;;;;;;;6.50;4.70;;;;;;;;;;107648;298;42052;-38
2023/09/07 11:28:22;;;;;;;6.70;5.10;;;;;;;;;;107674;293;38680;-38
2023/09/07 11:31:00;;;;;;;6.20;4.70;;;;;;;;;;107734;297;39812;-38
2023/09/07 11:33:36;;;;;;;5.70;4.50;;;;;;;;;;107638;298;42838;-38
2023/09/07 11:36:15;;;;;;;6.30;4.60;;;;;;;;;;107726;289;42209;-39
2023/09/07 11:38:51;;;;;;;6.20;4.80;;;;;;;;;;107670;298;38538;-38
2023/09/07 11:41:28;;;;;;;19.20;4.70;;;;;;;;;;107656;298;40127;-39
2023/09/07 11:44:02;;;;;;;6.90;4.80;;;;;;;;;;107710;293;42860;-38
2023/09/07 11:46:37;;;;;;;6.00;4.90;;;;;;;;;;107695;293;42341;-38
2023/09/07 11:49:13;;;;;;;6.20;4.60;;;;;;;;;;107639;298;38755;-38
2023/09/07 11:51:47;;;;;;;7.00;4.40;;;;;;;;;;107698;289;40523;-39
2023/09/07 11:54:21;;;;;;;6.10;4.60;;;;;;;;;;107710;293;42772;-39
2023/09/07 11:56:54;;;;;;;5.80;4.40;;;;;;;;;;107692;298;41836;-39
2023/09/07 11:59:32;;;;;;;7.00;4.40;;;;;;;;;;107671;293;39964;-40
2023/09/07 12:02:21;;;;;;;5.60;4.10;;;;;;;;;;107690;290;39813;-44
2023/09/07 12:05:00;;;;;;;6.90;4.50;;;;;;;;;;107722;289;44312;-38
2023/09/07 12:07:36;;;;;;;5.90;4.30;;;;;;;;;;107669;290;42368;-38
2023/09/07 12:10:19;;;;;;;5.70;4.30;;;;;;;;;;107706;293;44693;-40
2023/09/07 12:12:52;;;;;;;5.10;4.30;;;;;;;;;;107674;297;40845;-39
2023/09/07 12:15:26;;;;;;;5.60;4.20;;;;;;;;;;107681;289;42840;-40
2023/09/07 12:18:00;;;;;;;5.60;4.50;;;;;;;;;;107695;289;42224;-40
2023/09/07 12:20:36;;;;;;;6.00;4.50;;;;;;;;;;107698;294;38660;-41
2023/09/07 12:23:13;;;;;;;5.70;4.40;;;;;;;;;;107696;289;39731;-40
2023/09/07 12:25:50;;;;;;;5.80;4.30;;;;;;;;;;107720;297;44076;-40
2023/09/07 12:28:23;;;;;;;5.70;4.00;;;;;;;;;;107593;297;175424;-40
2023/09/07 12:31:02;;;;;;;5.50;4.30;;;;;;;;;;107711;289;38693;-40
2023/09/07 12:33:35;;;;;;;6.80;4.50;;;;;;;;;;107707;290;40074;-40
2023/09/07 12:36:13;;;;;;;5.30;4.40;;;;;;;;;;107560;290;176225;-39
2023/09/07 12:38:49;;;;;;;6.10;4.50;;;;;;;;;;107687;297;42161;-40
2023/09/07 12:41:27;;;;;;;5.80;4.20;;;;;;;;;;107710;298;38917;-40
2023/09/07 12:44:02;;;;;;;5.80;4.30;;;;;;;;;;107684;297;40033;-40
2023/09/07 12:46:38;;;;;;;5.70;4.30;;;;;;;;;;107696;293;42774;-39
2023/09/07 12:49:11;;;;;;;5.00;4.10;;;;;;;;;;107660;289;43386;-39
2023/09/07 12:51:48;;;;;;;5.20;4.10;;;;;;;;;;107722;289;38673;-39
2023/09/07 12:54:21;;;;;;;5.60;3.90;;;;;;;;;;107700;290;40690;-40
2023/09/07 12:57:00;;;;;;;6.20;4.30;;;;;;;;;;107718;289;43901;-39
2023/09/07 12:59:36;;;;;;;6.10;4.20;;;;;;;;;;107545;297;175440;-39
2023/09/07 13:02:15;;;;;;;6.20;4.10;;;;;;;;;;107689;293;38787;-39
2023/09/07 13:04:55;;;;;;;5.60;4.00;;;;;;;;;;107721;293;39429;-40
2023/09/07 13:07:34;;;;;;;6.30;4.00;;;;;;;;;;107617;297;42606;-40
2023/09/07 13:10:19;;;;;;;8.00;3.90;;;;;;;;;;107370;290;329545;-41
2023/09/07 13:12:53;;;;;;;6.50;3.70;;;;;;;;;;107713;293;38981;-38
2023/09/07 13:15:28;;;;;;;6.90;3.90;;;;;;;;;;107670;290;39659;-38
2023/09/07 13:18:02;;;;;;;5.30;3.50;;;;;;;;;;107702;289;42778;-38
2023/09/07 13:20:38;;;;;;;6.20;3.60;;;;;;;;;;107670;297;41994;-36
2023/09/07 13:23:12;;;;;;;6.20;3.60;;;;;;;;;;107723;290;38774;-38
2023/09/07 13:25:46;;;;;;;5.80;3.20;;;;;;;;;;107679;290;39617;-38
2023/09/07 13:28:23;;;;;;;6.70;3.40;;;;;;;;;;107701;289;42825;-37
2023/09/07 13:30:57;;;;;;;5.10;3.10;;;;;;;;;;107677;289;42058;-39
2023/09/07 13:33:31;;;;;;;5.30;3.50;;;;;;;;;;107699;289;39941;-40
2023/09/07 13:36:06;;;;;;;6.20;3.50;;;;;;;;;;107731;289;39604;-39
2023/09/07 13:38:43;;;;;;;5.20;3.40;;;;;;;;;;107766;297;42877;-39
2023/09/07 13:41:21;;;;;;;5.10;3.30;;;;;;;;;;107663;290;42448;-39
2023/09/07 13:44:00;;;;;;;5.40;3.00;;;;;;;;;;107722;289;38521;-41
2023/09/07 13:46:34;;;;;;;5.70;3.30;;;;;;;;;;107691;290;39915;-37
2023/09/07 13:49:07;;;;;;;5.10;3.20;;;;;;;;;;107686;290;42693;-38
2023/09/07 13:51:42;;;;;;;4.90;3.30;;;;;;;;;;107674;294;43629;-39
2023/09/07 13:54:18;;;;;;;5.10;3.40;;;;;;;;;;107701;289;38750;-39
2023/09/07 13:56:52;;;;;;;5.50;3.20;;;;;;;;;;107745;289;39887;-39
2023/09/07 13:59:32;;;;;;;5.40;3.50;;;;;;;;;;107705;297;43136;-37
2023/09/07 14:02:14;;;;;;;5.70;3.30;;;;;;;;;;107654;297;42129;-39
2023/09/07 14:04:52;;;;;;;4.90;3.20;;;;;;;;;;107758;297;39019;-40
2023/09/07 14:07:36;;;;;;;5.50;3.20;;;;;;;;;;107683;289;39545;-43
2023/09/07 14:10:20;;;;;;;5.70;3.30;;;;;;;;;;107617;290;42743;-39
2023/09/07 14:12:54;;;;;;;5.20;3.40;;;;;;;;;;107697;297;41838;-40
2023/09/07 14:15:27;;;;;;;5.70;3.00;;;;;;;;;;107716;289;38729;-37
2023/09/07 14:18:03;;;;;;;5.20;3.40;;;;;;;;;;107706;293;40425;-39
2023/09/07 14:20:37;;;;;;;5.60;3.50;;;;;;;;;;107686;289;43980;-39
2023/09/07 14:23:10;;;;;;;4.80;3.40;;;;;;;;;;107699;290;42058;-38
2023/09/07 14:25:46;;;;;;;5.20;3.50;;;;;;;;;;107724;294;38864;-39
2023/09/07 14:28:19;;;;;;;6.20;3.70;;;;;;;;;;107703;294;41003;-38
2023/09/07 14:30:53;;;;;;;6.60;3.50;;;;;;;;;;107674;297;42782;-39
2023/09/07 14:33:27;;;;;;;6.20;3.60;;;;;;;;;;107642;298;43382;-39
2023/09/07 14:36:03;;;;;;;4.90;3.60;;;;;;;;;;107698;294;38546;-39
2023/09/07 14:38:41;;;;;;;5.40;3.50;;;;;;;;;;107725;290;40046;-39
2023/09/07 14:41:19;;;;;;;5.40;3.60;;;;;;;;;;107651;290;43001;-39
2023/09/07 14:43:57;;;;;;;5.80;3.50;;;;;;;;;;107723;290;42082;-39
2023/09/07 14:46:30;;;;;;;6.30;3.90;;;;;;;;;;107673;293;38688;-38
2023/09/07 14:49:06;;;;;;;5.10;3.50;;;;;;;;;;107721;289;39617;-39
2023/09/07 14:51:40;;;;;;;5.90;3.60;;;;;;;;;;107667;290;42789;-38
2023/09/07 14:54:18;;;;;;;5.60;3.50;;;;;;;;;;107692;290;42086;-39
2023/09/07 14:56:52;;;;;;;5.40;3.70;;;;;;;;;;107657;294;40041;-38
2023/09/07 14:59:25;;;;;;;5.20;3.80;;;;;;;;;;107674;290;40981;-40
2023/09/07 15:02:00;;;;;;;4.50;3.30;;;;;;;;;;107648;289;43368;-40
2023/09/07 15:04:37;;;;;;;5.20;3.60;;;;;;;;;;107700;290;41867;-39
2023/09/07 15:07:13;;;;;;;5.50;3.20;;;;;;;;;;107670;290;38888;-40
2023/09/07 15:09:49;;;;;;;5.30;3.60;;;;;;;;;;107695;293;39908;-39
2023/09/07 15:12:22;;;;;;;5.20;3.30;;;;;;;;;;107662;297;44169;-40
2023/09/07 15:15:02;;;;;;;4.80;3.40;;;;;;;;;;107685;298;42322;-40
2023/09/07 15:17:44;;;;;;;5.70;3.70;;;;;;;;;;107668;298;38686;-40
2023/09/07 15:20:23;;;;;;;5.90;3.60;;;;;;;;;;107677;290;39634;-41
2023/09/07 15:22:58;;;;;;;5.40;3.40;;;;;;;;;;107694;289;42748;-40
2023/09/07 15:25:38;;;;;;;4.80;3.60;;;;;;;;;;107728;289;43478;-41
2023/09/07 15:28:15;;;;;;;6.50;3.70;;;;;;;;;;107663;289;38478;-41
2023/09/07 15:30:51;;;;;;;5.30;3.30;;;;;;;;;;107700;297;41304;-40
2023/09/07 15:33:27;;;;;;;5.20;3.10;;;;;;;;;;107703;294;42881;-41
2023/09/07 15:36:04;;;;;;;4.90;3.60;;;;;;;;;;107701;290;42282;-39